Aeroporto :
LOGIN :

Iscrizione | Disclaimer

   EN    FR    IT 

 










Sommario :    VFR   VFR Marginale   IFR   IFR Intensivo   IFR Molto Intensivo
Visibilità : 
Base nubi : 
>= 8 km
>= 3000ft
5 / 8 km
1000 / 3000 ft
1500m / 5 km
500 / 1000 ft
800 / 1500m
200 / 500 ft
< 800m
< 200 ft
Simboli :   Temporali  Nebbia  Neve Forte  Precipitazioni Forti  Vento > 20 kt
SIGMETs :   Varie  Temporali  Ghiacco  Turbolenza  Onda orograficha  Ceneri Vulcaniche






- Altitudine del aeroporto : 1260 ft
- Codice IATA : LDE


LFBT - Tarbes / Ossun

ULTIMO METAR :
  • 220330Z AUTO 22003KT CAVOK 07/07 Q1020 NOSIG

METARs OBSOLETI :
  • 220300Z AUTO VRB02KT CAVOK 08/08 Q1020 NOSIG
  • 220230Z AUTO 19003KT CAVOK 08/08 Q1020 NOSIG
  • 220200Z AUTO 16002KT CAVOK 07/07 Q1020 NOSIG
  • 220130Z AUTO 19004KT CAVOK 07/06 Q1020 NOSIG
  • 220100Z AUTO 16002KT CAVOK 08/08 Q1020 NOSIG

TAF TAF LFBT
Valido dal 22 a 00 ore il 23 a 00 ore UTC


212300Z 2200/2224 VRB02KT CAVOK
BECMG 2208/2210 3000 RA BKN035
TEMPO 2212/2219 1200 +RA BKN007
PROB40
TEMPO 2220/2224 BKN008



MetMap, La meteo Aeronautica in un colpo d'occhio ! - Copyright ORBIFLY Dicembre 2007 - Disclaimer

ORBIFLY MET'MAP TEAM :

Programmazione e sviluppo : Alexandra Zaïnal
Concezione e sviluppo : Baudouin d'Aumeries
Co-Programmazione e sviluppo : Marc-Olivier Méhu
Supporto tecnico e logistico : Manuel Goepfert
Aiuto per la traduzione : Arnaldo La Scala

Contatto : metmap@orbifly.com




FONTI E CREDITI :

   NOAA